createdAt,value
2018-02-15T00:00:58.157Z,957.84
2018-02-15T00:01:58.167Z,957.85
2018-02-15T00:02:58.181Z,957.89
2018-02-15T00:03:58.188Z,957.88
2018-02-15T00:04:58.199Z,957.85
2018-02-15T00:05:58.210Z,957.87
2018-02-15T00:06:58.225Z,957.88
2018-02-15T00:07:58.231Z,957.87
2018-02-15T00:08:58.243Z,957.87
2018-02-15T00:09:58.258Z,957.89
2018-02-15T00:10:58.265Z,957.88
2018-02-15T00:11:58.277Z,957.91
2018-02-15T00:12:58.286Z,957.89
2018-02-15T00:13:58.317Z,957.9
2018-02-15T00:14:58.307Z,957.92
2018-02-15T00:15:58.319Z,957.85
2018-02-15T00:16:58.329Z,957.83
2018-02-15T00:17:58.341Z,957.82
2018-02-15T00:18:58.349Z,957.87
2018-02-15T00:19:58.363Z,957.88
2018-02-15T00:20:58.385Z,957.8
2018-02-15T00:21:58.385Z,957.75
2018-02-15T00:22:58.392Z,957.78
2018-02-15T00:23:58.402Z,957.74
2018-02-15T00:24:58.414Z,957.75
2018-02-15T00:25:58.423Z,957.76
2018-02-15T00:26:58.435Z,957.73
2018-02-15T00:27:58.451Z,957.73
2018-02-15T00:28:58.458Z,957.74
2018-02-15T00:29:58.466Z,957.73
2018-02-15T00:30:58.476Z,957.75
2018-02-15T00:31:58.486Z,957.7
2018-02-15T00:32:58.496Z,957.71
2018-02-15T00:33:58.507Z,957.76
2018-02-15T00:34:58.518Z,957.7
2018-02-15T00:35:58.528Z,957.72
2018-02-15T00:36:58.539Z,957.69
2018-02-15T00:37:58.550Z,957.73
2018-02-15T00:38:58.560Z,957.73
2018-02-15T00:39:58.573Z,957.71
2018-02-15T00:40:58.579Z,957.73
2018-02-15T00:41:58.591Z,957.67
2018-02-15T00:42:58.601Z,957.73
2018-02-15T00:43:58.610Z,957.72
2018-02-15T00:44:58.620Z,957.7
2018-02-15T00:45:58.631Z,957.68
2018-02-15T00:46:58.642Z,957.66
2018-02-15T00:47:58.651Z,957.69
2018-02-15T00:48:58.666Z,957.71
2018-02-15T00:49:58.672Z,957.73
2018-02-15T00:50:58.682Z,957.73
2018-02-15T00:51:58.693Z,957.77
2018-02-15T00:52:58.702Z,957.77
2018-02-15T00:53:58.714Z,957.82
2018-02-15T00:54:58.723Z,957.83
2018-02-15T00:55:58.734Z,957.86
2018-02-15T00:56:58.744Z,957.87
2018-02-15T00:57:58.754Z,957.89
2018-02-15T00:58:58.763Z,957.92
2018-02-15T00:59:58.777Z,957.97
2018-02-15T01:00:58.783Z,957.97
2018-02-15T01:01:58.795Z,958.02
2018-02-15T01:02:58.804Z,958.01
2018-02-15T01:03:58.814Z,958.02
2018-02-15T01:04:58.824Z,958
2018-02-15T01:05:58.833Z,957.94
2018-02-15T01:06:58.845Z,957.94
2018-02-15T01:07:58.854Z,957.89
2018-02-15T01:08:58.867Z,957.89
2018-02-15T01:09:58.881Z,957.84
2018-02-15T01:10:58.885Z,957.83
2018-02-15T01:11:58.896Z,957.83
2018-02-15T01:12:58.907Z,957.84
2018-02-15T01:13:58.916Z,957.9
2018-02-15T01:14:58.927Z,957.94
2018-02-15T01:15:58.937Z,957.89
2018-02-15T01:16:58.947Z,957.98
2018-02-15T01:17:58.958Z,957.95
2018-02-15T01:18:58.967Z,957.91
2018-02-15T01:19:58.977Z,957.91
2018-02-15T01:20:58.988Z,957.88
2018-02-15T01:21:58.999Z,957.9
2018-02-15T01:22:59.008Z,957.85
2018-02-15T01:23:59.024Z,957.9
2018-02-15T01:24:59.028Z,957.85
2018-02-15T01:25:59.039Z,957.84
2018-02-15T01:26:59.049Z,957.84
2018-02-15T01:27:59.058Z,957.81
2018-02-15T01:28:59.070Z,957.84
2018-02-15T01:29:59.080Z,957.78
2018-02-15T01:30:59.090Z,957.78
2018-02-15T01:31:59.099Z,957.74
2018-02-15T01:32:59.109Z,957.74
2018-02-15T01:33:59.120Z,957.75
2018-02-15T01:34:59.131Z,957.76
2018-02-15T01:35:59.140Z,957.83
2018-02-15T01:36:59.150Z,957.85
2018-02-15T01:37:59.160Z,957.89
2018-02-15T01:38:59.170Z,957.85
2018-02-15T01:39:59.181Z,957.84
2018-02-15T01:40:59.193Z,957.82
2018-02-15T01:41:59.200Z,957.77
2018-02-15T01:42:59.210Z,957.69
2018-02-15T01:43:59.220Z,957.68
2018-02-15T01:44:59.229Z,957.68
2018-02-15T01:45:59.241Z,957.64
2018-02-15T01:46:59.256Z,957.66
2018-02-15T01:47:59.262Z,957.64
2018-02-15T01:48:59.273Z,957.67
2018-02-15T01:49:59.284Z,957.64
2018-02-15T01:50:59.291Z,957.68
2018-02-15T01:51:59.302Z,957.64
2018-02-15T01:52:59.315Z,957.59
2018-02-15T01:53:59.321Z,957.63
2018-02-15T01:54:59.331Z,957.64
2018-02-15T01:55:59.342Z,957.59
2018-02-15T01:56:59.352Z,957.6
2018-02-15T01:57:59.362Z,957.58
2018-02-15T01:58:59.371Z,957.51
2018-02-15T01:59:59.382Z,957.49
2018-02-15T02:00:59.391Z,957.41
2018-02-15T02:01:59.401Z,957.43
2018-02-15T02:02:59.414Z,957.44
2018-02-15T02:03:59.422Z,957.42
2018-02-15T02:04:59.431Z,957.45
2018-02-15T02:05:59.440Z,957.4
2018-02-15T02:06:59.450Z,957.47
2018-02-15T02:07:59.460Z,957.43
2018-02-15T02:08:59.471Z,957.43
2018-02-15T02:09:59.481Z,957.49
2018-02-15T02:10:59.492Z,957.5
2018-02-15T02:11:59.501Z,957.53
2018-02-15T02:12:59.510Z,957.52
2018-02-15T02:13:59.543Z,957.53
2018-02-15T02:14:59.531Z,957.52
2018-02-15T02:15:59.539Z,957.52
2018-02-15T02:16:59.551Z,957.54
2018-02-15T02:17:59.561Z,957.56
2018-02-15T02:18:59.573Z,957.57
2018-02-15T02:19:59.581Z,957.58
2018-02-15T02:20:59.610Z,957.51
2018-02-15T02:21:59.601Z,957.5
2018-02-15T02:22:59.610Z,957.54
2018-02-15T02:23:59.622Z,957.51
2018-02-15T02:24:59.630Z,957.47
2018-02-15T02:25:59.641Z,957.46
2018-02-15T02:26:59.650Z,957.47
2018-02-15T02:27:59.677Z,957.42
2018-02-15T02:28:59.672Z,957.43
2018-02-15T02:29:59.681Z,957.42
2018-02-15T02:30:59.692Z,957.45
2018-02-15T02:31:59.701Z,957.41
2018-02-15T02:32:59.711Z,957.4
2018-02-15T02:33:59.720Z,957.42
2018-02-15T02:34:59.746Z,957.4
2018-02-15T02:35:59.740Z,957.43
2018-02-15T02:36:59.752Z,957.41
2018-02-15T02:37:59.762Z,957.34
2018-02-15T02:38:59.770Z,957.37
2018-02-15T02:39:59.782Z,957.37
2018-02-15T02:40:59.790Z,957.38
2018-02-15T02:41:59.810Z,957.44
2018-02-15T02:42:59.811Z,957.43
2018-02-15T02:43:59.821Z,957.42
2018-02-15T02:44:59.830Z,957.4
2018-02-15T02:45:59.841Z,957.35
2018-02-15T02:46:59.851Z,957.27
2018-02-15T02:47:59.862Z,957.28
2018-02-15T02:48:59.876Z,957.25
2018-02-15T02:49:59.881Z,957.21
2018-02-15T02:50:59.890Z,957.17
2018-02-15T02:51:59.899Z,957.16
2018-02-15T02:52:59.910Z,957.13
2018-02-15T02:53:59.920Z,957.13
2018-02-15T02:54:59.930Z,957.15
2018-02-15T02:55:59.943Z,957.09
2018-02-15T02:56:59.951Z,957.13
2018-02-15T02:57:59.960Z,957.2
2018-02-15T02:58:59.970Z,957.18
2018-02-15T02:59:59.983Z,957.26
2018-02-15T03:00:59.992Z,957.22
2018-02-15T03:01:59.998Z,957.22
2018-02-15T03:03:00.021Z,957.22
2018-02-15T03:04:00.023Z,957.2
2018-02-15T03:05:00.030Z,957.22
2018-02-15T03:06:00.038Z,957.24
2018-02-15T03:07:00.048Z,957.29
2018-02-15T03:08:00.058Z,957.24
2018-02-15T03:09:00.068Z,957.23
2018-02-15T03:10:00.082Z,957.24
2018-02-15T03:11:00.087Z,957.25
2018-02-15T03:12:00.097Z,957.22
2018-02-15T03:13:00.108Z,957.26
2018-02-15T03:14:00.116Z,957.27
2018-02-15T03:15:00.132Z,957.25
2018-02-15T03:16:00.137Z,957.28
2018-02-15T03:17:00.148Z,957.28
2018-02-15T03:18:00.157Z,957.22
2018-02-15T03:19:00.171Z,957.23
2018-02-15T03:20:00.176Z,957.24
2018-02-15T03:21:00.186Z,957.27
2018-02-15T03:22:00.196Z,957.29
2018-02-15T03:23:00.208Z,957.25
2018-02-15T03:24:00.225Z,957.25
2018-02-15T03:25:00.227Z,957.2
2018-02-15T03:26:00.237Z,957.21
2018-02-15T03:27:00.250Z,957.18
2018-02-15T03:28:00.257Z,957.15
2018-02-15T03:29:00.267Z,957.17
2018-02-15T03:30:00.276Z,957.16
2018-02-15T03:31:00.289Z,957.15
2018-02-15T03:32:00.302Z,957.2
2018-02-15T03:33:00.307Z,957.15
2018-02-15T03:34:00.316Z,957.23
2018-02-15T03:35:00.326Z,957.18
2018-02-15T03:36:00.348Z,957.15
2018-02-15T03:37:00.346Z,957.08
2018-02-15T03:38:00.356Z,957.06
2018-02-15T03:39:00.366Z,957.02
2018-02-15T03:40:00.374Z,956.98
2018-02-15T03:41:00.384Z,956.99
2018-02-15T03:42:00.395Z,956.97
2018-02-15T03:43:00.404Z,956.97
2018-02-15T03:44:00.415Z,956.99
2018-02-15T03:45:00.425Z,956.95
2018-02-15T03:46:00.434Z,956.95
2018-02-15T03:47:00.443Z,956.99
2018-02-15T03:48:00.452Z,956.99
2018-02-15T03:49:00.464Z,957.01
2018-02-15T03:50:00.478Z,956.96
2018-02-15T03:51:00.482Z,956.99
2018-02-15T03:52:00.495Z,956.99
2018-02-15T03:53:00.504Z,956.98
2018-02-15T03:54:00.512Z,957
2018-02-15T03:55:00.525Z,957
2018-02-15T03:56:00.531Z,956.92
2018-02-15T03:57:00.541Z,956.98
2018-02-15T03:58:00.551Z,956.9
2018-02-15T03:59:00.560Z,956.89
2018-02-15T04:00:00.571Z,956.82
2018-02-15T04:01:00.579Z,956.74
2018-02-15T04:02:00.589Z,956.71
2018-02-15T04:03:00.599Z,956.69
2018-02-15T04:04:00.609Z,956.62
2018-02-15T04:05:00.618Z,956.55
2018-02-15T04:06:00.628Z,956.51
2018-02-15T04:07:00.639Z,956.49
2018-02-15T04:08:00.648Z,956.46
2018-02-15T04:09:00.656Z,956.38
2018-02-15T04:10:00.666Z,956.39
2018-02-15T04:11:00.678Z,956.39
2018-02-15T04:12:00.687Z,956.38
2018-02-15T04:13:00.696Z,956.4
2018-02-15T04:14:00.706Z,956.38
2018-02-15T04:15:00.716Z,956.5
2018-02-15T04:16:00.724Z,956.52
2018-02-15T04:17:00.735Z,956.63
2018-02-15T04:18:00.744Z,956.75
2018-02-15T04:19:00.754Z,956.73
2018-02-15T04:20:00.768Z,956.85
2018-02-15T04:21:00.775Z,956.89
2018-02-15T04:22:00.786Z,956.92
2018-02-15T04:23:00.793Z,956.95
2018-02-15T04:24:00.802Z,956.99
2018-02-15T04:25:00.813Z,957.02
2018-02-15T04:26:00.822Z,957.04
2018-02-15T04:27:00.832Z,957.11
2018-02-15T04:28:00.843Z,957.06
2018-02-15T04:29:00.851Z,957.2
2018-02-15T04:30:00.862Z,957.15
2018-02-15T04:31:00.887Z,957.2
2018-02-15T04:32:00.881Z,957.08
2018-02-15T04:33:00.891Z,957.05
2018-02-15T04:34:00.901Z,956.96
2018-02-15T04:35:00.910Z,957.05
2018-02-15T04:36:00.920Z,957.02
2018-02-15T04:37:00.932Z,957.03
2018-02-15T04:38:00.940Z,956.99
2018-02-15T04:39:00.948Z,956.99
2018-02-15T04:40:00.957Z,956.98
2018-02-15T04:41:00.967Z,957.02
2018-02-15T04:42:00.977Z,957
2018-02-15T04:43:00.986Z,957.04
2018-02-15T04:44:00.997Z,957.06
2018-02-15T04:45:01.007Z,957.06
2018-02-15T04:46:01.016Z,957.14
2018-02-15T04:47:01.024Z,957.14
2018-02-15T04:48:01.036Z,957.18
2018-02-15T04:49:01.045Z,957.14
2018-02-15T04:50:01.056Z,957.15
2018-02-15T04:51:01.064Z,957.17
2018-02-15T04:52:01.073Z,957.11
2018-02-15T04:53:01.083Z,957.03
2018-02-15T04:54:01.094Z,957.03
2018-02-15T04:55:01.103Z,956.99
2018-02-15T04:56:01.113Z,956.97
2018-02-15T04:57:01.123Z,956.93
2018-02-15T04:58:01.133Z,956.9
2018-02-15T04:59:01.142Z,956.9
2018-02-15T05:00:01.152Z,956.86
2018-02-15T05:01:01.162Z,956.88
2018-02-15T05:02:01.173Z,956.87
2018-02-15T05:03:01.181Z,956.88
2018-02-15T05:04:01.189Z,956.82
2018-02-15T05:05:01.200Z,956.85
2018-02-15T05:06:01.209Z,956.81
2018-02-15T05:07:01.220Z,956.79
2018-02-15T05:08:01.230Z,956.76
2018-02-15T05:09:01.239Z,956.75
2018-02-15T05:10:01.250Z,956.71
2018-02-15T05:11:01.258Z,956.72
2018-02-15T05:12:01.271Z,956.67
2018-02-15T05:13:01.277Z,956.7
2018-02-15T05:14:01.287Z,956.7
2018-02-15T05:15:01.297Z,956.68
2018-02-15T05:16:01.307Z,956.66
2018-02-15T05:17:01.316Z,956.58
2018-02-15T05:18:01.325Z,956.58
2018-02-15T05:19:01.334Z,956.51
2018-02-15T05:20:01.344Z,956.55
2018-02-15T05:21:01.355Z,956.52
2018-02-15T05:22:01.364Z,956.56
2018-02-15T05:23:01.375Z,956.58
2018-02-15T05:24:01.383Z,956.6
2018-02-15T05:25:01.394Z,956.57
2018-02-15T05:26:01.403Z,956.62
2018-02-15T05:27:01.413Z,956.61
2018-02-15T05:28:01.424Z,956.6
2018-02-15T05:29:01.433Z,956.6
2018-02-15T05:30:01.442Z,956.58
2018-02-15T05:31:01.452Z,956.55
2018-02-15T05:32:01.462Z,956.54
2018-02-15T05:33:01.470Z,956.56
2018-02-15T05:34:01.482Z,956.57
2018-02-15T05:35:01.496Z,956.62
2018-02-15T05:36:01.503Z,956.59
2018-02-15T05:37:01.534Z,956.6
2018-02-15T05:38:01.523Z,956.62
2018-02-15T05:39:01.531Z,956.62
2018-02-15T05:40:01.541Z,956.6
2018-02-15T05:41:01.550Z,956.67
2018-02-15T05:42:01.563Z,956.59
2018-02-15T05:43:01.572Z,956.61
2018-02-15T05:44:01.602Z,956.62
2018-02-15T05:45:01.591Z,956.59
2018-02-15T05:46:01.603Z,956.64
2018-02-15T05:47:01.612Z,956.67
2018-02-15T05:48:01.621Z,956.66
2018-02-15T05:49:01.632Z,956.69
2018-02-15T05:50:01.643Z,956.67
2018-02-15T05:51:01.666Z,956.68
2018-02-15T05:52:01.664Z,956.66
2018-02-15T05:53:01.676Z,956.68
2018-02-15T05:54:01.683Z,956.67
2018-02-15T05:55:01.693Z,956.68
2018-02-15T05:56:01.703Z,956.71
2018-02-15T05:57:01.720Z,956.7
2018-02-15T05:58:01.737Z,956.75
2018-02-15T05:59:01.732Z,956.77
2018-02-15T06:00:01.744Z,956.78
2018-02-15T06:01:01.759Z,956.76
2018-02-15T06:02:01.797Z,956.79
2018-02-15T06:03:01.775Z,956.77
2018-02-15T06:04:01.793Z,956.79
2018-02-15T06:05:01.801Z,956.76
2018-02-15T06:06:01.806Z,956.81
2018-02-15T06:07:01.816Z,956.83
2018-02-15T06:08:01.827Z,956.79
2018-02-15T06:09:01.838Z,956.78
2018-02-15T06:10:01.847Z,956.79
2018-02-15T06:11:01.857Z,956.85
2018-02-15T06:12:01.868Z,956.82
2018-02-15T06:13:01.891Z,956.86
2018-02-15T06:14:01.889Z,956.84
2018-02-15T06:15:01.897Z,956.84
2018-02-15T06:16:01.910Z,956.84
2018-02-15T06:17:01.919Z,956.84
2018-02-15T06:18:01.928Z,956.82
2018-02-15T06:19:01.942Z,956.85
2018-02-15T06:20:01.950Z,956.8
2018-02-15T06:21:01.960Z,956.78
2018-02-15T06:22:01.971Z,956.8
2018-02-15T06:23:01.983Z,956.78
2018-02-15T06:24:01.991Z,956.77
2018-02-15T06:25:02.002Z,956.83
2018-02-15T06:26:02.016Z,956.83
2018-02-15T06:27:02.021Z,956.84
2018-02-15T06:28:02.035Z,956.85
2018-02-15T06:29:02.043Z,956.84
2018-02-15T06:30:02.054Z,956.82
2018-02-15T06:31:02.064Z,956.78
2018-02-15T06:32:02.073Z,956.78
2018-02-15T06:33:02.085Z,956.77
2018-02-15T06:34:02.094Z,956.73
2018-02-15T06:35:02.108Z,956.69
2018-02-15T06:36:02.116Z,956.68
2018-02-15T06:37:02.126Z,956.6
2018-02-15T06:38:02.136Z,956.57
2018-02-15T06:39:02.145Z,956.57
2018-02-15T06:40:02.155Z,956.58
2018-02-15T06:41:02.166Z,956.57
2018-02-15T06:42:02.212Z,956.6
2018-02-15T06:43:02.186Z,956.56
2018-02-15T06:44:02.195Z,956.61
2018-02-15T06:45:02.207Z,956.6
2018-02-15T06:46:02.215Z,956.62
2018-02-15T06:47:02.226Z,956.59
2018-02-15T06:48:02.237Z,956.61
2018-02-15T06:49:02.248Z,956.58
2018-02-15T06:50:02.256Z,956.59
2018-02-15T06:51:02.268Z,956.56
2018-02-15T06:52:02.279Z,956.56
2018-02-15T06:53:02.315Z,956.58
2018-02-15T06:54:02.296Z,956.56
2018-02-15T06:55:02.307Z,956.58
2018-02-15T06:56:02.317Z,956.57
2018-02-15T06:57:02.327Z,956.58
2018-02-15T06:58:02.337Z,956.63
2018-02-15T06:59:02.350Z,956.58
2018-02-15T07:00:02.362Z,956.57
2018-02-15T07:01:02.437Z,956.57
2018-02-15T07:02:02.379Z,956.53
2018-02-15T07:03:02.389Z,956.54
2018-02-15T07:04:02.398Z,956.55
2018-02-15T07:05:02.411Z,956.56
2018-02-15T07:06:02.419Z,956.57
2018-02-15T07:07:02.429Z,956.58
2018-02-15T07:08:02.441Z,956.59
2018-02-15T07:09:02.451Z,956.58
2018-02-15T07:10:02.461Z,956.58
2018-02-15T07:11:02.472Z,956.6
2018-02-15T07:12:02.482Z,956.57
2018-02-15T07:13:02.494Z,956.55
2018-02-15T07:14:02.503Z,956.52
2018-02-15T07:15:02.514Z,956.53
2018-02-15T07:16:02.525Z,956.55
2018-02-15T07:17:02.536Z,956.51
2018-02-15T07:18:02.547Z,956.55
2018-02-15T07:19:02.561Z,956.57
2018-02-15T07:20:02.568Z,956.51
2018-02-15T07:21:02.582Z,956.51
2018-02-15T07:22:02.590Z,956.48
2018-02-15T07:23:02.600Z,956.55
2018-02-15T07:24:02.611Z,956.53
2018-02-15T07:25:02.623Z,956.53
2018-02-15T07:26:02.632Z,956.55
2018-02-15T07:27:02.644Z,956.57
2018-02-15T07:28:02.656Z,956.55
2018-02-15T07:29:02.667Z,956.51
2018-02-15T07:30:02.701Z,956.48
2018-02-15T07:31:02.688Z,956.51
2018-02-15T07:32:02.698Z,956.52
2018-02-15T07:33:02.711Z,956.49
2018-02-15T07:34:02.721Z,956.61
2018-02-15T07:35:02.733Z,956.57
2018-02-15T07:36:02.743Z,956.59
2018-02-15T07:37:02.759Z,956.61
2018-02-15T07:38:02.765Z,956.62
2018-02-15T07:39:02.774Z,956.61
2018-02-15T07:40:02.788Z,956.62
2018-02-15T07:41:02.796Z,956.65
2018-02-15T07:42:02.808Z,956.63
2018-02-15T07:43:02.820Z,956.63
2018-02-15T07:44:02.834Z,956.63
2018-02-15T07:45:02.843Z,956.61
2018-02-15T07:46:02.853Z,956.66
2018-02-15T07:47:02.865Z,956.7
2018-02-15T07:48:02.876Z,956.71
2018-02-15T07:49:02.888Z,956.71
2018-02-15T07:50:02.901Z,956.79
2018-02-15T07:51:02.912Z,956.78
2018-02-15T07:52:02.921Z,956.83
2018-02-15T07:53:02.933Z,956.79
2018-02-15T07:54:02.945Z,956.81
2018-02-15T07:55:02.957Z,956.82
2018-02-15T07:56:02.967Z,956.86
2018-02-15T07:57:02.979Z,956.86
2018-02-15T07:58:02.992Z,956.83
2018-02-15T07:59:03.002Z,956.84
2018-02-15T08:00:03.015Z,956.86
2018-02-15T08:01:03.025Z,956.84
2018-02-15T08:02:03.038Z,956.9
2018-02-15T08:03:03.047Z,956.93
2018-02-15T08:04:03.080Z,956.95
2018-02-15T08:05:03.085Z,956.94
2018-02-15T08:06:03.083Z,956.96
2018-02-15T08:07:03.097Z,957.01
2018-02-15T08:08:03.108Z,956.95
2018-02-15T08:09:03.120Z,956.99
2018-02-15T08:10:03.129Z,956.99
2018-02-15T08:11:03.143Z,956.98
2018-02-15T08:12:03.154Z,957.01
2018-02-15T08:13:03.166Z,957.05
2018-02-15T08:14:03.177Z,957.04
2018-02-15T08:15:03.189Z,957.02
2018-02-15T08:16:03.200Z,957.02
2018-02-15T08:17:03.213Z,957.03
2018-02-15T08:18:03.224Z,957.03
2018-02-15T08:19:03.240Z,957.03
2018-02-15T08:20:03.250Z,957.07
2018-02-15T08:21:03.259Z,957.02
2018-02-15T08:22:03.272Z,956.99
2018-02-15T08:23:03.283Z,957.01
2018-02-15T08:24:03.296Z,957.03
2018-02-15T08:25:03.308Z,957.04
2018-02-15T08:26:03.329Z,957.04
2018-02-15T08:27:03.332Z,957.05
2018-02-15T08:28:03.343Z,957.05
2018-02-15T08:29:03.355Z,957.09
2018-02-15T08:30:03.367Z,957.13
2018-02-15T08:31:03.380Z,957.12
2018-02-15T08:32:03.391Z,957.13
2018-02-15T08:33:03.404Z,957.12
2018-02-15T08:34:03.416Z,957.15
2018-02-15T08:35:03.429Z,957.12
2018-02-15T08:36:03.441Z,957.17
2018-02-15T08:37:03.451Z,957.17
2018-02-15T08:38:03.472Z,957.18
2018-02-15T08:39:03.477Z,957.19
2018-02-15T08:40:03.490Z,957.11
2018-02-15T08:41:03.511Z,957.16
2018-02-15T08:42:03.515Z,957.22
2018-02-15T08:43:03.527Z,957.16
2018-02-15T08:44:03.539Z,957.2
2018-02-15T08:45:03.553Z,957.16
2018-02-15T08:46:03.565Z,957.18
2018-02-15T08:47:03.577Z,957.2
2018-02-15T08:48:03.592Z,957.19
2018-02-15T08:49:03.602Z,957.23
2018-02-15T08:50:03.615Z,957.25
2018-02-15T08:51:03.628Z,957.2
2018-02-15T08:52:03.669Z,957.22
2018-02-15T08:53:03.653Z,957.18
2018-02-15T08:54:03.665Z,957.23
2018-02-15T08:55:03.681Z,957.2
2018-02-15T08:56:03.694Z,957.18
2018-02-15T08:57:03.705Z,957.18
2018-02-15T08:58:03.716Z,957.23
2018-02-15T08:59:03.728Z,957.26
2018-02-15T09:00:03.742Z,957.22
2018-02-15T09:01:03.754Z,957.17
2018-02-15T09:02:03.771Z,957.23
2018-02-15T09:03:03.781Z,957.24
2018-02-15T09:04:03.794Z,957.22
2018-02-15T09:05:03.806Z,957.23
2018-02-15T09:06:03.818Z,957.23
2018-02-15T09:07:03.831Z,957.23
2018-02-15T09:08:03.844Z,957.24
2018-02-15T09:09:03.857Z,957.22
2018-02-15T09:10:03.870Z,957.24
2018-02-15T09:11:03.882Z,957.28
2018-02-15T09:12:03.895Z,957.32
2018-02-15T09:13:03.911Z,957.26
2018-02-15T09:14:03.922Z,957.31
2018-02-15T09:15:03.936Z,957.28
2018-02-15T09:16:03.951Z,957.27
2018-02-15T09:17:03.960Z,957.3
2018-02-15T09:18:03.975Z,957.3
2018-02-15T09:19:03.988Z,957.3
2018-02-15T09:20:04.001Z,957.34
2018-02-15T09:21:04.014Z,957.32
2018-02-15T09:22:04.029Z,957.33
2018-02-15T09:23:04.042Z,957.34
2018-02-15T09:24:04.065Z,957.32
2018-02-15T09:25:04.068Z,957.36
2018-02-15T09:26:04.083Z,957.33
2018-02-15T09:27:04.098Z,957.36
2018-02-15T09:28:04.109Z,957.35
2018-02-15T09:29:04.123Z,957.35
2018-02-15T09:30:04.139Z,957.37
2018-02-15T09:31:04.150Z,957.4
2018-02-15T09:32:04.165Z,957.44
2018-02-15T09:33:04.179Z,957.42
2018-02-15T09:34:04.192Z,957.44
2018-02-15T09:35:04.207Z,957.46
2018-02-15T09:36:04.219Z,957.43
2018-02-15T09:37:04.233Z,957.43
2018-02-15T09:38:04.261Z,957.46
2018-02-15T09:39:04.263Z,957.49
2018-02-15T09:40:04.276Z,957.43
2018-02-15T09:41:04.289Z,957.48
2018-02-15T09:42:04.306Z,957.5
2018-02-15T09:43:04.320Z,957.48
2018-02-15T09:44:04.333Z,957.51
2018-02-15T09:45:04.347Z,957.45
2018-02-15T09:46:04.361Z,957.35
2018-02-15T09:47:04.384Z,957.33
2018-02-15T09:48:04.390Z,957.36
2018-02-15T09:49:04.405Z,957.29
2018-02-15T09:50:04.420Z,957.26
2018-02-15T09:51:04.440Z,957.28
2018-02-15T09:52:04.447Z,957.24
2018-02-15T09:53:04.483Z,957.28
2018-02-15T09:54:04.476Z,957.3
2018-02-15T09:55:04.490Z,957.3
2018-02-15T09:56:04.504Z,957.29
2018-02-15T09:57:04.519Z,957.36
2018-02-15T09:58:04.532Z,957.34
2018-02-15T09:59:04.548Z,957.37
2018-02-15T10:00:04.565Z,957.38
2018-02-15T10:01:04.575Z,957.35
2018-02-15T10:02:04.590Z,957.36
2018-02-15T10:03:04.603Z,957.4
2018-02-15T10:04:04.620Z,957.37
2018-02-15T10:05:04.634Z,957.36
2018-02-15T10:06:04.648Z,957.34
2018-02-15T10:07:04.676Z,957.33
2018-02-15T10:08:04.676Z,957.3
2018-02-15T10:09:04.694Z,957.29
2018-02-15T10:10:04.708Z,957.3
2018-02-15T10:11:04.720Z,957.36
2018-02-15T10:12:04.735Z,957.38
2018-02-15T10:13:04.752Z,957.42
2018-02-15T10:14:04.763Z,957.45
2018-02-15T10:15:04.779Z,957.44
2018-02-15T10:16:04.793Z,957.49
2018-02-15T10:17:04.807Z,957.46
2018-02-15T10:18:04.825Z,957.41
2018-02-15T10:19:04.838Z,957.44
2018-02-15T10:20:04.853Z,957.4
2018-02-15T10:21:04.866Z,957.42
2018-02-15T10:22:04.901Z,957.41
2018-02-15T10:23:04.896Z,957.36
2018-02-15T10:24:04.910Z,957.32
2018-02-15T10:25:04.926Z,957.33
2018-02-15T10:26:04.940Z,957.35
2018-02-15T10:27:04.956Z,957.32
2018-02-15T10:28:04.969Z,957.34
2018-02-15T10:29:04.985Z,957.4
2018-02-15T10:30:05.002Z,957.44
2018-02-15T10:31:05.013Z,957.39
2018-02-15T10:32:05.029Z,957.4
2018-02-15T10:33:05.042Z,957.37
2018-02-15T10:34:05.059Z,957.45
2018-02-15T10:35:05.074Z,957.48
2018-02-15T10:36:05.096Z,957.49
2018-02-15T10:37:05.101Z,957.5
2018-02-15T10:38:05.115Z,957.46
2018-02-15T10:39:05.130Z,957.45
2018-02-15T10:40:05.145Z,957.45
2018-02-15T10:41:05.161Z,957.46
2018-02-15T10:42:05.177Z,957.48
2018-02-15T10:43:05.191Z,957.43
2018-02-15T10:44:05.204Z,957.44
2018-02-15T10:45:05.217Z,957.44
2018-02-15T10:46:05.232Z,957.49
2018-02-15T10:47:05.246Z,957.41
2018-02-15T10:48:05.262Z,957.41
2018-02-15T10:49:05.277Z,957.39
2018-02-15T10:50:05.292Z,957.39
2018-02-15T10:51:05.364Z,957.36
2018-02-15T10:52:05.320Z,957.37
2018-02-15T10:53:05.340Z,957.35
2018-02-15T10:54:05.350Z,957.4
2018-02-15T10:55:05.364Z,957.42
2018-02-15T10:56:05.379Z,957.39
2018-02-15T10:57:05.394Z,957.43
2018-02-15T10:58:05.408Z,957.41
2018-02-15T10:59:05.423Z,957.4
2018-02-15T11:00:05.438Z,957.44
2018-02-15T11:01:05.453Z,957.43
2018-02-15T11:02:05.468Z,957.46
2018-02-15T11:03:05.483Z,957.4
2018-02-15T11:04:05.499Z,957.4
2018-02-15T11:05:05.515Z,957.39
2018-02-15T11:06:05.528Z,957.41
2018-02-15T11:07:05.543Z,957.41
2018-02-15T11:08:05.558Z,957.35
2018-02-15T11:09:05.576Z,957.38
2018-02-15T11:10:05.626Z,957.33
2018-02-15T11:11:05.602Z,957.34
2018-02-15T11:12:05.619Z,957.32
2018-02-15T11:13:05.632Z,957.38
2018-02-15T11:14:05.648Z,957.41
2018-02-15T11:15:05.668Z,957.39
2018-02-15T11:16:05.678Z,957.41
2018-02-15T11:17:05.693Z,957.44
2018-02-15T11:18:05.710Z,957.43
2018-02-15T11:19:05.722Z,957.4
2018-02-15T11:20:05.740Z,957.43
2018-02-15T11:21:05.752Z,957.43
2018-02-15T11:22:05.767Z,957.39
2018-02-15T11:23:05.783Z,957.39
2018-02-15T11:24:05.797Z,957.4
2018-02-15T11:25:05.812Z,957.39
2018-02-15T11:26:05.827Z,957.38
2018-02-15T11:27:05.841Z,957.38
2018-02-15T11:28:05.856Z,957.36
2018-02-15T11:29:05.873Z,957.37
2018-02-15T11:30:05.886Z,957.38
2018-02-15T11:31:05.900Z,957.38
2018-02-15T11:32:05.916Z,957.41
2018-02-15T11:33:05.931Z,957.41
2018-02-15T11:34:05.945Z,957.44
2018-02-15T11:35:05.960Z,957.42
2018-02-15T11:36:05.976Z,957.42
2018-02-15T11:37:05.990Z,957.43
2018-02-15T11:38:06.005Z,957.39
2018-02-15T11:39:06.020Z,957.4
2018-02-15T11:40:06.036Z,957.42
2018-02-15T11:41:06.050Z,957.37
2018-02-15T11:42:06.062Z,957.42
2018-02-15T11:43:06.079Z,957.38
2018-02-15T11:44:06.094Z,957.38
2018-02-15T11:45:06.109Z,957.35
2018-02-15T11:46:06.123Z,957.32
2018-02-15T11:47:06.173Z,957.3
2018-02-15T11:48:06.152Z,957.33
2018-02-15T11:49:06.172Z,957.31
2018-02-15T11:50:06.182Z,957.31
2018-02-15T11:51:06.197Z,957.32
2018-02-15T11:52:06.213Z,957.29
2018-02-15T11:53:06.226Z,957.3
2018-02-15T11:54:06.244Z,957.29
2018-02-15T11:55:06.259Z,957.25
2018-02-15T11:56:06.285Z,957.27
2018-02-15T11:57:06.287Z,957.3
2018-02-15T11:58:06.306Z,957.3
2018-02-15T11:59:06.314Z,957.3
2018-02-15T12:00:06.329Z,957.26
2018-02-15T12:01:06.354Z,957.26
2018-02-15T12:02:06.360Z,957.28
2018-02-15T12:03:06.374Z,957.27
2018-02-15T12:04:06.389Z,957.28
2018-02-15T12:05:06.405Z,957.3
2018-02-15T12:06:06.419Z,957.28
2018-02-15T12:07:06.434Z,957.3
2018-02-15T12:08:06.448Z,957.29
2018-02-15T12:09:06.465Z,957.25
2018-02-15T12:10:06.479Z,957.27
2018-02-15T12:11:06.512Z,957.24
2018-02-15T12:12:06.508Z,957.26
2018-02-15T12:13:06.523Z,957.31
2018-02-15T12:14:06.538Z,957.26
2018-02-15T12:15:06.553Z,957.19
2018-02-15T12:16:06.566Z,957.16
2018-02-15T12:17:06.581Z,957.17
2018-02-15T12:18:06.600Z,957.18
2018-02-15T12:19:06.614Z,957.17
2018-02-15T12:20:06.627Z,957.18
2018-02-15T12:21:06.642Z,957.18
2018-02-15T12:22:06.655Z,957.16
2018-02-15T12:23:06.670Z,957.19
2018-02-15T12:24:06.686Z,957.2
2018-02-15T12:25:06.702Z,957.16
2018-02-15T12:26:06.716Z,957.13
2018-02-15T12:27:06.730Z,957.15
2018-02-15T12:28:06.747Z,957.12
2018-02-15T12:29:06.761Z,957.15
2018-02-15T12:30:06.779Z,957.21
2018-02-15T12:31:06.792Z,957.18
2018-02-15T12:32:06.806Z,957.14